Aérodrome :







RETROUVEZ-NOUS SUR...

 
LOGIN :

S'inscrire | Disclaimer

   EN    FR    IT 

 









Légende :    VFR   VFR Marginal   IFR   IFR Intensif   IFR Très Intensif
Visi : 
Plafond : 
>= 8 km
>= 3000ft
5 à 8 km
1000 à 3000 ft
1500m à 5 km
500 à 1000 ft
800 à 1500m
200 à 500 ft
< 800m
< 200 ft
Symboles :   Orages  Brouillard  Fortes neiges  Fortes précipitations  Vent > 20 kt






- Altitude de l'aérodrome : 203 ft
- Code IATA : YQY


CYQY - Sydney

DERNIER METAR :
  • 231200Z 11014KT 15SM OVC023 08/04 A3031 RMK SC8 SLP268

METARs EXPIRÉS :
  • 231100Z 11010KT 15SM OVC026 08/03 A3033 RMK SC8 SLP273
  • 231000Z 12006KT 15SM OVC026 08/03 A3034 RMK SC8 SLP278

TAF AMD TAF CYQY
Valide du 23 à 12h jusqu'au 24 à 00h UTC


231147Z 2312/2324 12010G20KT P6SM OVC025
TEMPO 2312/2323 OVC020
BECMG 2314/2316 13018G28KT
FM232300 14020G35KT P6SM BKN015 OVC180 RMK NXT FCST BY 231800Z



MET'MAP, la Météo Aéronautique d'un coup d'oeil ! - Copyright ORBIFLY Décembre 2007 - Disclaimer

ORBIFLY MET'MAP TEAM :

Programmation & Développement : Alexandra Zaïnal
Conception & Développement : Baudouin d'Aumeries
Co-Programmation & Développement : Marc-Olivier Méhu
Soutien technique & logistique : Manuel Goepfert

Contact : metmap@orbifly.com




SOURCES & CREDITS :

   NOAA